sensor_id;sensor_type;location;lat;lon;timestamp;P1;P2;P0
57884;PMS5003;43703;51.060;-0.086;2022-09-03T00:02:02;79;76;
57884;PMS5003;43703;51.060;-0.086;2022-09-03T00:04:27;83;78;
57884;PMS5003;43703;51.060;-0.086;2022-09-03T00:06:51;74;74;
57884;PMS5003;43703;51.060;-0.086;2022-09-03T00:09:18;73;72;
57884;PMS5003;43703;51.060;-0.086;2022-09-03T00:11:44;79;75;
57884;PMS5003;43703;51.060;-0.086;2022-09-03T00:14:07;70;68;
57884;PMS5003;43703;51.060;-0.086;2022-09-03T00:16:34;78;75;
57884;PMS5003;43703;51.060;-0.086;2022-09-03T00:18:58;74;70;
57884;PMS5003;43703;51.060;-0.086;2022-09-03T00:21:24;73;70;
57884;PMS5003;43703;51.060;-0.086;2022-09-03T00:23:48;78;74;
57884;PMS5003;43703;51.060;-0.086;2022-09-03T00:26:16;81;75;
57884;PMS5003;43703;51.060;-0.086;2022-09-03T00:28:40;78;76;
57884;PMS5003;43703;51.060;-0.086;2022-09-03T00:31:06;77;75;
57884;PMS5003;43703;51.060;-0.086;2022-09-03T00:33:30;81;74;
57884;PMS5003;43703;51.060;-0.086;2022-09-03T00:36:02;85;82;
57884;PMS5003;43703;51.060;-0.086;2022-09-03T00:38:21;82;79;
57884;PMS5003;43703;51.060;-0.086;2022-09-03T00:40:53;78;75;
57884;PMS5003;43703;51.060;-0.086;2022-09-03T00:43:17;77;76;
57884;PMS5003;43703;51.060;-0.086;2022-09-03T00:45:38;76;73;
57884;PMS5003;43703;51.060;-0.086;2022-09-03T00:48:07;79;75;
57884;PMS5003;43703;51.060;-0.086;2022-09-03T00:50:32;80;75;
57884;PMS5003;43703;51.060;-0.086;2022-09-03T00:52:56;88;85;
57884;PMS5003;43703;51.060;-0.086;2022-09-03T00:55:22;85;84;
57884;PMS5003;43703;51.060;-0.086;2022-09-03T00:57:47;86;83;
57884;PMS5003;43703;51.060;-0.086;2022-09-03T01:00:11;84;83;
57884;PMS5003;43703;51.060;-0.086;2022-09-03T01:02:39;91;88;
57884;PMS5003;43703;51.060;-0.086;2022-09-03T01:05:02;82;81;
57884;PMS5003;43703;51.060;-0.086;2022-09-03T01:07:29;85;80;
57884;PMS5003;43703;51.060;-0.086;2022-09-03T01:09:52;89;86;
57884;PMS5003;43703;51.060;-0.086;2022-09-03T01:12:18;85;80;
57884;PMS5003;43703;51.060;-0.086;2022-09-03T01:14:46;78;75;
57884;PMS5003;43703;51.060;-0.086;2022-09-03T01:17:11;83;76;
57884;PMS5003;43703;51.060;-0.086;2022-09-03T01:19:39;79;76;
57884;PMS5003;43703;51.060;-0.086;2022-09-03T01:22:04;77;75;
57884;PMS5003;43703;51.060;-0.086;2022-09-03T01:24:33;80;77;
57884;PMS5003;43703;51.060;-0.086;2022-09-03T01:26:54;80;76;
57884;PMS5003;43703;51.060;-0.086;2022-09-03T01:29:18;75;75;
57884;PMS5003;43703;51.060;-0.086;2022-09-03T01:31:44;84;81;
57884;PMS5003;43703;51.060;-0.086;2022-09-03T01:34:12;78;73;
57884;PMS5003;43703;51.060;-0.086;2022-09-03T01:36:34;72;70;
57884;PMS5003;43703;51.060;-0.086;2022-09-03T01:38:58;58;56;
57884;PMS5003;43703;51.060;-0.086;2022-09-03T01:41:25;72;70;
57884;PMS5003;43703;51.060;-0.086;2022-09-03T01:43:49;85;81;
57884;PMS5003;43703;51.060;-0.086;2022-09-03T01:46:16;79;76;
57884;PMS5003;43703;51.060;-0.086;2022-09-03T01:48:41;77;76;
57884;PMS5003;43703;51.060;-0.086;2022-09-03T01:51:10;84;82;
57884;PMS5003;43703;51.060;-0.086;2022-09-03T01:53:36;86;83;
57884;PMS5003;43703;51.060;-0.086;2022-09-03T01:56:00;87;83;
57884;PMS5003;43703;51.060;-0.086;2022-09-03T01:58:24;83;76;
57884;PMS5003;43703;51.060;-0.086;2022-09-03T02:00:48;83;76;
57884;PMS5003;43703;51.060;-0.086;2022-09-03T02:03:13;73;71;
57884;PMS5003;43703;51.060;-0.086;2022-09-03T02:05:38;77;74;
57884;PMS5003;43703;51.060;-0.086;2022-09-03T02:08:04;79;70;
57884;PMS5003;43703;51.060;-0.086;2022-09-03T02:10:30;70;67;
57884;PMS5003;43703;51.060;-0.086;2022-09-03T02:12:55;76;74;
57884;PMS5003;43703;51.060;-0.086;2022-09-03T02:15:21;70;69;
57884;PMS5003;43703;51.060;-0.086;2022-09-03T02:17:46;78;73;
57884;PMS5003;43703;51.060;-0.086;2022-09-03T02:20:11;82;76;
57884;PMS5003;43703;51.060;-0.086;2022-09-03T02:22:36;85;83;
57884;PMS5003;43703;51.060;-0.086;2022-09-03T02:25:01;74;71;
57884;PMS5003;43703;51.060;-0.086;2022-09-03T02:27:27;78;75;
57884;PMS5003;43703;51.060;-0.086;2022-09-03T02:29:52;83;77;
57884;PMS5003;43703;51.060;-0.086;2022-09-03T02:32:17;81;79;
57884;PMS5003;43703;51.060;-0.086;2022-09-03T02:34:42;82;74;
57884;PMS5003;43703;51.060;-0.086;2022-09-03T02:37:11;75;71;
57884;PMS5003;43703;51.060;-0.086;2022-09-03T02:39:33;87;87;
57884;PMS5003;43703;51.060;-0.086;2022-09-03T02:41:59;76;75;
57884;PMS5003;43703;51.060;-0.086;2022-09-03T02:44:25;90;84;
57884;PMS5003;43703;51.060;-0.086;2022-09-03T02:46:53;95;88;
57884;PMS5003;43703;51.060;-0.086;2022-09-03T02:49:16;87;85;
57884;PMS5003;43703;51.060;-0.086;2022-09-03T02:51:42;81;79;
57884;PMS5003;43703;51.060;-0.086;2022-09-03T02:54:07;87;82;
57884;PMS5003;43703;51.060;-0.086;2022-09-03T02:56:33;96;87;
57884;PMS5003;43703;51.060;-0.086;2022-09-03T02:58:59;88;85;
57884;PMS5003;43703;51.060;-0.086;2022-09-03T03:01:24;87;82;
57884;PMS5003;43703;51.060;-0.086;2022-09-03T03:03:49;90;87;
57884;PMS5003;43703;51.060;-0.086;2022-09-03T03:06:15;91;87;
57884;PMS5003;43703;51.060;-0.086;2022-09-03T03:08:40;101;97;
57884;PMS5003;43703;51.060;-0.086;2022-09-03T03:11:06;103;96;
57884;PMS5003;43703;51.060;-0.086;2022-09-03T03:13:31;83;82;
57884;PMS5003;43703;51.060;-0.086;2022-09-03T03:15:57;85;79;
57884;PMS5003;43703;51.060;-0.086;2022-09-03T03:18:23;90;82;
57884;PMS5003;43703;51.060;-0.086;2022-09-03T03:20:48;82;79;
57884;PMS5003;43703;51.060;-0.086;2022-09-03T03:23:13;83;79;
57884;PMS5003;43703;51.060;-0.086;2022-09-03T03:25:39;92;90;
57884;PMS5003;43703;51.060;-0.086;2022-09-03T03:28:05;95;87;
57884;PMS5003;43703;51.060;-0.086;2022-09-03T03:30:31;99;94;
57884;PMS5003;43703;51.060;-0.086;2022-09-03T03:32:57;89;79;
57884;PMS5003;43703;51.060;-0.086;2022-09-03T03:35:21;93;90;
57884;PMS5003;43703;51.060;-0.086;2022-09-03T03:37:46;97;92;
57884;PMS5003;43703;51.060;-0.086;2022-09-03T03:40:12;94;85;
57884;PMS5003;43703;51.060;-0.086;2022-09-03T03:42:37;82;80;
57884;PMS5003;43703;51.060;-0.086;2022-09-03T03:45:03;91;86;
57884;PMS5003;43703;51.060;-0.086;2022-09-03T03:47:28;90;81;
57884;PMS5003;43703;51.060;-0.086;2022-09-03T03:49:54;88;84;
57884;PMS5003;43703;51.060;-0.086;2022-09-03T03:52:19;87;81;
57884;PMS5003;43703;51.060;-0.086;2022-09-03T03:54:45;91;87;
57884;PMS5003;43703;51.060;-0.086;2022-09-03T03:57:11;85;80;
57884;PMS5003;43703;51.060;-0.086;2022-09-03T03:59:36;94;87;
57884;PMS5003;43703;51.060;-0.086;2022-09-03T04:02:01;89;83;
57884;PMS5003;43703;51.060;-0.086;2022-09-03T04:04:27;87;83;
57884;PMS5003;43703;51.060;-0.086;2022-09-03T04:06:53;94;91;
57884;PMS5003;43703;51.060;-0.086;2022-09-03T04:09:19;95;88;
57884;PMS5003;43703;51.060;-0.086;2022-09-03T04:11:44;87;81;
57884;PMS5003;43703;51.060;-0.086;2022-09-03T04:14:10;91;88;
57884;PMS5003;43703;51.060;-0.086;2022-09-03T04:16:34;109;103;
57884;PMS5003;43703;51.060;-0.086;2022-09-03T04:19:00;106;100;
57884;PMS5003;43703;51.060;-0.086;2022-09-03T04:21:26;96;90;
57884;PMS5003;43703;51.060;-0.086;2022-09-03T04:23:52;101;95;
57884;PMS5003;43703;51.060;-0.086;2022-09-03T04:26:17;97;90;
57884;PMS5003;43703;51.060;-0.086;2022-09-03T04:28:42;95;88;
57884;PMS5003;43703;51.060;-0.086;2022-09-03T04:31:08;94;88;
57884;PMS5003;43703;51.060;-0.086;2022-09-03T04:33:33;86;82;
57884;PMS5003;43703;51.060;-0.086;2022-09-03T04:36:02;77;75;
57884;PMS5003;43703;51.060;-0.086;2022-09-03T04:38:23;75;71;
57884;PMS5003;43703;51.060;-0.086;2022-09-03T04:40:50;77;76;
57884;PMS5003;43703;51.060;-0.086;2022-09-03T04:43:14;78;76;
57884;PMS5003;43703;51.060;-0.086;2022-09-03T04:45:39;91;83;
57884;PMS5003;43703;51.060;-0.086;2022-09-03T04:48:05;78;76;
57884;PMS5003;43703;51.060;-0.086;2022-09-03T04:50:31;83;78;
57884;PMS5003;43703;51.060;-0.086;2022-09-03T04:52:58;76;71;
57884;PMS5003;43703;51.060;-0.086;2022-09-03T04:55:22;76;71;
57884;PMS5003;43703;51.060;-0.086;2022-09-03T04:57:47;82;79;
57884;PMS5003;43703;51.060;-0.086;2022-09-03T05:00:13;74;71;
57884;PMS5003;43703;51.060;-0.086;2022-09-03T05:02:38;88;79;
57884;PMS5003;43703;51.060;-0.086;2022-09-03T05:05:03;81;77;
57884;PMS5003;43703;51.060;-0.086;2022-09-03T05:07:29;74;72;
57884;PMS5003;43703;51.060;-0.086;2022-09-03T05:09:54;88;83;
57884;PMS5003;43703;51.060;-0.086;2022-09-03T05:12:19;83;80;
57884;PMS5003;43703;51.060;-0.086;2022-09-03T05:14:44;76;76;
57884;PMS5003;43703;51.060;-0.086;2022-09-03T05:17:09;82;79;
57884;PMS5003;43703;51.060;-0.086;2022-09-03T05:19:35;83;79;
57884;PMS5003;43703;51.060;-0.086;2022-09-03T05:22:00;88;76;
57884;PMS5003;43703;51.060;-0.086;2022-09-03T05:24:26;77;77;
57884;PMS5003;43703;51.060;-0.086;2022-09-03T05:26:51;83;79;
57884;PMS5003;43703;51.060;-0.086;2022-09-03T05:29:17;87;78;
57884;PMS5003;43703;51.060;-0.086;2022-09-03T05:31:43;77;77;
57884;PMS5003;43703;51.060;-0.086;2022-09-03T05:34:09;75;72;
57884;PMS5003;43703;51.060;-0.086;2022-09-03T05:36:35;81;76;
57884;PMS5003;43703;51.060;-0.086;2022-09-03T05:39:00;80;79;
57884;PMS5003;43703;51.060;-0.086;2022-09-03T05:41:25;76;73;
57884;PMS5003;43703;51.060;-0.086;2022-09-03T05:43:51;85;83;
57884;PMS5003;43703;51.060;-0.086;2022-09-03T05:46:16;82;78;
57884;PMS5003;43703;51.060;-0.086;2022-09-03T05:48:42;79;76;
57884;PMS5003;43703;51.060;-0.086;2022-09-03T05:51:08;94;84;
57884;PMS5003;43703;51.060;-0.086;2022-09-03T05:53:33;81;76;
57884;PMS5003;43703;51.060;-0.086;2022-09-03T05:55:58;80;77;
57884;PMS5003;43703;51.060;-0.086;2022-09-03T05:58:23;86;83;
57884;PMS5003;43703;51.060;-0.086;2022-09-03T06:00:49;79;78;
57884;PMS5003;43703;51.060;-0.086;2022-09-03T06:03:14;86;79;
57884;PMS5003;43703;51.060;-0.086;2022-09-03T06:08:05;82;76;
57884;PMS5003;43703;51.060;-0.086;2022-09-03T06:10:30;75;74;
57884;PMS5003;43703;51.060;-0.086;2022-09-03T06:12:56;69;67;
57884;PMS5003;43703;51.060;-0.086;2022-09-03T06:15:21;72;68;
57884;PMS5003;43703;51.060;-0.086;2022-09-03T06:17:47;77;71;
57884;PMS5003;43703;51.060;-0.086;2022-09-03T06:20:12;73;70;
57884;PMS5003;43703;51.060;-0.086;2022-09-03T06:22:37;69;67;
57884;PMS5003;43703;51.060;-0.086;2022-09-03T06:25:03;79;74;
57884;PMS5003;43703;51.060;-0.086;2022-09-03T06:27:28;76;73;
57884;PMS5003;43703;51.060;-0.086;2022-09-03T06:29:54;68;67;
57884;PMS5003;43703;51.060;-0.086;2022-09-03T06:32:19;76;73;
57884;PMS5003;43703;51.060;-0.086;2022-09-03T06:34:44;68;64;
57884;PMS5003;43703;51.060;-0.086;2022-09-03T06:37:10;65;61;
57884;PMS5003;43703;51.060;-0.086;2022-09-03T06:39:36;59;58;
57884;PMS5003;43703;51.060;-0.086;2022-09-03T06:42:01;64;61;
57884;PMS5003;43703;51.060;-0.086;2022-09-03T06:44:27;53;53;
57884;PMS5003;43703;51.060;-0.086;2022-09-03T06:46:52;54;53;
57884;PMS5003;43703;51.060;-0.086;2022-09-03T06:49:18;59;59;
57884;PMS5003;43703;51.060;-0.086;2022-09-03T06:51:43;65;65;
57884;PMS5003;43703;51.060;-0.086;2022-09-03T06:54:09;64;59;
57884;PMS5003;43703;51.060;-0.086;2022-09-03T06:56:34;65;64;
57884;PMS5003;43703;51.060;-0.086;2022-09-03T06:59:05;65;62;
57884;PMS5003;43703;51.060;-0.086;2022-09-03T07:01:25;58;57;
57884;PMS5003;43703;51.060;-0.086;2022-09-03T07:03:51;66;65;
57884;PMS5003;43703;51.060;-0.086;2022-09-03T07:06:16;73;68;
57884;PMS5003;43703;51.060;-0.086;2022-09-03T07:08:41;57;57;
57884;PMS5003;43703;51.060;-0.086;2022-09-03T07:11:08;68;65;
57884;PMS5003;43703;51.060;-0.086;2022-09-03T07:13:32;70;65;
57884;PMS5003;43703;51.060;-0.086;2022-09-03T07:15:59;62;59;
57884;PMS5003;43703;51.060;-0.086;2022-09-03T07:18:23;61;61;
57884;PMS5003;43703;51.060;-0.086;2022-09-03T07:20:49;70;68;
57884;PMS5003;43703;51.060;-0.086;2022-09-03T07:23:15;74;70;
57884;PMS5003;43703;51.060;-0.086;2022-09-03T07:25:40;73;71;
57884;PMS5003;43703;51.060;-0.086;2022-09-03T07:28:05;66;61;
57884;PMS5003;43703;51.060;-0.086;2022-09-03T07:30:31;64;61;
57884;PMS5003;43703;51.060;-0.086;2022-09-03T07:32:56;59;58;
57884;PMS5003;43703;51.060;-0.086;2022-09-03T07:35:21;69;62;
57884;PMS5003;43703;51.060;-0.086;2022-09-03T07:37:47;63;62;
57884;PMS5003;43703;51.060;-0.086;2022-09-03T07:40:13;70;64;
57884;PMS5003;43703;51.060;-0.086;2022-09-03T07:42:38;69;65;
57884;PMS5003;43703;51.060;-0.086;2022-09-03T07:45:04;67;62;
57884;PMS5003;43703;51.060;-0.086;2022-09-03T07:47:29;80;72;
57884;PMS5003;43703;51.060;-0.086;2022-09-03T07:49:54;70;64;
57884;PMS5003;43703;51.060;-0.086;2022-09-03T07:52:20;74;70;
57884;PMS5003;43703;51.060;-0.086;2022-09-03T07:54:46;67;63;
57884;PMS5003;43703;51.060;-0.086;2022-09-03T07:57:11;80;75;
57884;PMS5003;43703;51.060;-0.086;2022-09-03T07:59:36;82;76;
57884;PMS5003;43703;51.060;-0.086;2022-09-03T08:02:02;77;76;
57884;PMS5003;43703;51.060;-0.086;2022-09-03T08:04:27;85;82;
57884;PMS5003;43703;51.060;-0.086;2022-09-03T08:06:52;73;71;
57884;PMS5003;43703;51.060;-0.086;2022-09-03T08:09:18;79;77;
57884;PMS5003;43703;51.060;-0.086;2022-09-03T08:11:43;72;69;
57884;PMS5003;43703;51.060;-0.086;2022-09-03T08:14:09;70;66;
57884;PMS5003;43703;51.060;-0.086;2022-09-03T08:16:35;69;68;
57884;PMS5003;43703;51.060;-0.086;2022-09-03T08:19:00;62;60;
57884;PMS5003;43703;51.060;-0.086;2022-09-03T08:21:26;65;61;
57884;PMS5003;43703;51.060;-0.086;2022-09-03T08:23:52;59;55;
57884;PMS5003;43703;51.060;-0.086;2022-09-03T08:26:17;66;64;
57884;PMS5003;43703;51.060;-0.086;2022-09-03T08:28:42;61;60;
57884;PMS5003;43703;51.060;-0.086;2022-09-03T08:31:08;54;53;
57884;PMS5003;43703;51.060;-0.086;2022-09-03T08:33:33;73;71;
57884;PMS5003;43703;51.060;-0.086;2022-09-03T08:35:58;64;60;
57884;PMS5003;43703;51.060;-0.086;2022-09-03T08:38:24;64;63;
57884;PMS5003;43703;51.060;-0.086;2022-09-03T08:40:49;57;54;
57884;PMS5003;43703;51.060;-0.086;2022-09-03T08:43:15;58;58;
57884;PMS5003;43703;51.060;-0.086;2022-09-03T08:45:40;58;55;
57884;PMS5003;43703;51.060;-0.086;2022-09-03T08:48:06;51;49;
57884;PMS5003;43703;51.060;-0.086;2022-09-03T08:50:32;52;47;
57884;PMS5003;43703;51.060;-0.086;2022-09-03T08:52:57;43;43;
57884;PMS5003;43703;51.060;-0.086;2022-09-03T08:55:24;49;48;
57884;PMS5003;43703;51.060;-0.086;2022-09-03T08:57:48;44;44;
57884;PMS5003;43703;51.060;-0.086;2022-09-03T09:00:13;42;40;
57884;PMS5003;43703;51.060;-0.086;2022-09-03T09:02:42;39;39;
57884;PMS5003;43703;51.060;-0.086;2022-09-03T09:05:06;36;34;
57884;PMS5003;43703;51.060;-0.086;2022-09-03T09:07:31;47;43;
57884;PMS5003;43703;51.060;-0.086;2022-09-03T09:09:57;36;35;
57884;PMS5003;43703;51.060;-0.086;2022-09-03T09:12:27;41;41;
57884;PMS5003;43703;51.060;-0.086;2022-09-03T09:14:49;43;42;
57884;PMS5003;43703;51.060;-0.086;2022-09-03T09:17:18;41;39;
57884;PMS5003;43703;51.060;-0.086;2022-09-03T09:19:39;45;43;
57884;PMS5003;43703;51.060;-0.086;2022-09-03T09:22:04;47;44;
57884;PMS5003;43703;51.060;-0.086;2022-09-03T09:24:41;46;43;
57884;PMS5003;43703;51.060;-0.086;2022-09-03T09:26:54;41;40;
57884;PMS5003;43703;51.060;-0.086;2022-09-03T09:29:19;36;31;
57884;PMS5003;43703;51.060;-0.086;2022-09-03T09:31:44;43;43;
57884;PMS5003;43703;51.060;-0.086;2022-09-03T09:34:10;38;38;
57884;PMS5003;43703;51.060;-0.086;2022-09-03T09:36:35;30;30;
57884;PMS5003;43703;51.060;-0.086;2022-09-03T09:41:25;28;28;
57884;PMS5003;43703;51.060;-0.086;2022-09-03T09:46:20;26;25;
57884;PMS5003;43703;51.060;-0.086;2022-09-03T09:48:46;30;29;
57884;PMS5003;43703;51.060;-0.086;2022-09-03T09:51:08;32;32;
57884;PMS5003;43703;51.060;-0.086;2022-09-03T09:53:33;34;33;
57884;PMS5003;43703;51.060;-0.086;2022-09-03T09:55:58;30;29;
57884;PMS5003;43703;51.060;-0.086;2022-09-03T09:58:24;29;29;
57884;PMS5003;43703;51.060;-0.086;2022-09-03T10:03:14;26;24;
57884;PMS5003;43703;51.060;-0.086;2022-09-03T10:05:39;30;30;
57884;PMS5003;43703;51.060;-0.086;2022-09-03T10:08:06;25;25;
57884;PMS5003;43703;51.060;-0.086;2022-09-03T10:10:32;26;26;
57884;PMS5003;43703;51.060;-0.086;2022-09-03T10:12:57;21;21;
57884;PMS5003;43703;51.060;-0.086;2022-09-03T10:15:24;17;17;
57884;PMS5003;43703;51.060;-0.086;2022-09-03T10:17:57;24;20;
57884;PMS5003;43703;51.060;-0.086;2022-09-03T10:20:21;18;18;
57884;PMS5003;43703;51.060;-0.086;2022-09-03T10:22:42;18;18;
57884;PMS5003;43703;51.060;-0.086;2022-09-03T10:25:05;17;16;
57884;PMS5003;43703;51.060;-0.086;2022-09-03T10:27:30;17;17;
57884;PMS5003;43703;51.060;-0.086;2022-09-03T10:29:56;17;17;
57884;PMS5003;43703;51.060;-0.086;2022-09-03T10:32:25;14;14;
57884;PMS5003;43703;51.060;-0.086;2022-09-03T10:34:49;15;15;
57884;PMS5003;43703;51.060;-0.086;2022-09-03T10:37:16;15;15;
57884;PMS5003;43703;51.060;-0.086;2022-09-03T10:39:41;17;17;
57884;PMS5003;43703;51.060;-0.086;2022-09-03T10:42:07;18;17;
57884;PMS5003;43703;51.060;-0.086;2022-09-03T10:44:37;22;20;
57884;PMS5003;43703;51.060;-0.086;2022-09-03T10:46:57;15;14;
57884;PMS5003;43703;51.060;-0.086;2022-09-03T10:49:28;14;13;
57884;PMS5003;43703;51.060;-0.086;2022-09-03T10:51:49;10;10;
57884;PMS5003;43703;51.060;-0.086;2022-09-03T10:56:39;9;9;
57884;PMS5003;43703;51.060;-0.086;2022-09-03T10:59:09;7;7;
57884;PMS5003;43703;51.060;-0.086;2022-09-03T11:01:32;11;11;
57884;PMS5003;43703;51.060;-0.086;2022-09-03T11:03:59;9;9;
57884;PMS5003;43703;51.060;-0.086;2022-09-03T11:06:22;9;9;
57884;PMS5003;43703;51.060;-0.086;2022-09-03T11:08:50;12;12;
57884;PMS5003;43703;51.060;-0.086;2022-09-03T11:11:15;21;16;
57884;PMS5003;43703;51.060;-0.086;2022-09-03T11:13:39;13;11;
57884;PMS5003;43703;51.060;-0.086;2022-09-03T11:16:06;12;12;
57884;PMS5003;43703;51.060;-0.086;2022-09-03T11:18:30;30;30;
57884;PMS5003;43703;51.060;-0.086;2022-09-03T11:20:56;17;17;
57884;PMS5003;43703;51.060;-0.086;2022-09-03T11:23:23;10;10;
57884;PMS5003;43703;51.060;-0.086;2022-09-03T11:25:48;11;11;
57884;PMS5003;43703;51.060;-0.086;2022-09-03T11:28:15;10;10;
57884;PMS5003;43703;51.060;-0.086;2022-09-03T11:30:47;9;9;
57884;PMS5003;43703;51.060;-0.086;2022-09-03T11:33:05;14;14;
57884;PMS5003;43703;51.060;-0.086;2022-09-03T11:37:57;12;10;
57884;PMS5003;43703;51.060;-0.086;2022-09-03T11:40:27;11;11;
57884;PMS5003;43703;51.060;-0.086;2022-09-03T11:42:47;10;10;
57884;PMS5003;43703;51.060;-0.086;2022-09-03T11:47:39;12;11;
57884;PMS5003;43703;51.060;-0.086;2022-09-03T11:50:06;11;10;
57884;PMS5003;43703;51.060;-0.086;2022-09-03T11:52:31;12;11;
57884;PMS5003;43703;51.060;-0.086;2022-09-03T11:54:57;12;11;
57884;PMS5003;43703;51.060;-0.086;2022-09-03T11:57:24;11;10;
57884;PMS5003;43703;51.060;-0.086;2022-09-03T11:59:48;14;14;
57884;PMS5003;43703;51.060;-0.086;2022-09-03T12:02:18;12;12;
57884;PMS5003;43703;51.060;-0.086;2022-09-03T12:04:41;12;12;
57884;PMS5003;43703;51.060;-0.086;2022-09-03T12:07:10;14;12;
57884;PMS5003;43703;51.060;-0.086;2022-09-03T12:09:35;11;11;
57884;PMS5003;43703;51.060;-0.086;2022-09-03T12:11:59;8;8;
57884;PMS5003;43703;51.060;-0.086;2022-09-03T12:14:25;12;12;
57884;PMS5003;43703;51.060;-0.086;2022-09-03T12:16:51;15;15;
57884;PMS5003;43703;51.060;-0.086;2022-09-03T12:19:17;12;12;
57884;PMS5003;43703;51.060;-0.086;2022-09-03T12:21:40;12;11;
57884;PMS5003;43703;51.060;-0.086;2022-09-03T12:24:07;17;17;
57884;PMS5003;43703;51.060;-0.086;2022-09-03T12:26:37;10;10;
57884;PMS5003;43703;51.060;-0.086;2022-09-03T12:28:58;17;17;
57884;PMS5003;43703;51.060;-0.086;2022-09-03T12:31:23;18;15;
57884;PMS5003;43703;51.060;-0.086;2022-09-03T12:33:49;14;14;
57884;PMS5003;43703;51.060;-0.086;2022-09-03T12:36:14;18;17;
57884;PMS5003;43703;51.060;-0.086;2022-09-03T12:38:40;15;15;
57884;PMS5003;43703;51.060;-0.086;2022-09-03T12:43:32;19;19;
57884;PMS5003;43703;51.060;-0.086;2022-09-03T12:45:57;24;23;
57884;PMS5003;43703;51.060;-0.086;2022-09-03T12:48:23;23;22;
57884;PMS5003;43703;51.060;-0.086;2022-09-03T12:50:59;24;22;
57884;PMS5003;43703;51.060;-0.086;2022-09-03T12:53:16;21;21;
57884;PMS5003;43703;51.060;-0.086;2022-09-03T12:55:41;21;21;
57884;PMS5003;43703;51.060;-0.086;2022-09-03T12:58:06;22;22;
57884;PMS5003;43703;51.060;-0.086;2022-09-03T13:00:31;18;18;
57884;PMS5003;43703;51.060;-0.086;2022-09-03T13:02:58;21;21;
57884;PMS5003;43703;51.060;-0.086;2022-09-03T13:05:23;18;18;
57884;PMS5003;43703;51.060;-0.086;2022-09-03T13:07:48;17;17;
57884;PMS5003;43703;51.060;-0.086;2022-09-03T13:10:22;17;15;
57884;PMS5003;43703;51.060;-0.086;2022-09-03T13:12:42;16;16;
57884;PMS5003;43703;51.060;-0.086;2022-09-03T13:15:07;18;17;
57884;PMS5003;43703;51.060;-0.086;2022-09-03T13:17:35;17;16;
57884;PMS5003;43703;51.060;-0.086;2022-09-03T13:20:04;15;15;
57884;PMS5003;43703;51.060;-0.086;2022-09-03T13:22:24;17;16;
57884;PMS5003;43703;51.060;-0.086;2022-09-03T13:24:54;16;16;
57884;PMS5003;43703;51.060;-0.086;2022-09-03T13:27:15;16;15;
57884;PMS5003;43703;51.060;-0.086;2022-09-03T13:29:43;20;19;
57884;PMS5003;43703;51.060;-0.086;2022-09-03T13:32:08;19;18;
57884;PMS5003;43703;51.060;-0.086;2022-09-03T13:34:31;19;18;
57884;PMS5003;43703;51.060;-0.086;2022-09-03T13:36:57;17;17;
57884;PMS5003;43703;51.060;-0.086;2022-09-03T13:39:24;18;18;
57884;PMS5003;43703;51.060;-0.086;2022-09-03T13:41:48;21;19;
57884;PMS5003;43703;51.060;-0.086;2022-09-03T13:44:15;16;14;
57884;PMS5003;43703;51.060;-0.086;2022-09-03T13:46:40;17;17;
57884;PMS5003;43703;51.060;-0.086;2022-09-03T13:49:07;15;15;
57884;PMS5003;43703;51.060;-0.086;2022-09-03T13:51:38;16;16;
57884;PMS5003;43703;51.060;-0.086;2022-09-03T13:54:00;15;15;
57884;PMS5003;43703;51.060;-0.086;2022-09-03T13:56:24;17;15;
57884;PMS5003;43703;51.060;-0.086;2022-09-03T13:58:50;17;17;
57884;PMS5003;43703;51.060;-0.086;2022-09-03T14:01:21;15;15;
57884;PMS5003;43703;51.060;-0.086;2022-09-03T14:03:42;16;16;
57884;PMS5003;43703;51.060;-0.086;2022-09-03T14:06:06;17;17;
57884;PMS5003;43703;51.060;-0.086;2022-09-03T14:08:33;19;19;
57884;PMS5003;43703;51.060;-0.086;2022-09-03T14:10:59;20;19;
57884;PMS5003;43703;51.060;-0.086;2022-09-03T14:13:27;17;17;
57884;PMS5003;43703;51.060;-0.086;2022-09-03T14:15:49;17;17;
57884;PMS5003;43703;51.060;-0.086;2022-09-03T14:18:15;15;15;
57884;PMS5003;43703;51.060;-0.086;2022-09-03T14:20:40;16;15;
57884;PMS5003;43703;51.060;-0.086;2022-09-03T14:23:06;17;17;
57884;PMS5003;43703;51.060;-0.086;2022-09-03T14:25:31;22;18;
57884;PMS5003;43703;51.060;-0.086;2022-09-03T14:32:48;19;19;
57884;PMS5003;43703;51.060;-0.086;2022-09-03T14:35:20;18;18;
57884;PMS5003;43703;51.060;-0.086;2022-09-03T14:37:45;23;23;
57884;PMS5003;43703;51.060;-0.086;2022-09-03T14:40:08;18;18;
57884;PMS5003;43703;51.060;-0.086;2022-09-03T14:42:34;19;18;
57884;PMS5003;43703;51.060;-0.086;2022-09-03T14:47:24;23;22;
57884;PMS5003;43703;51.060;-0.086;2022-09-03T14:49:50;18;18;
57884;PMS5003;43703;51.060;-0.086;2022-09-03T14:52:15;22;21;
57884;PMS5003;43703;51.060;-0.086;2022-09-03T14:54:40;22;21;
57884;PMS5003;43703;51.060;-0.086;2022-09-03T14:57:06;24;24;
57884;PMS5003;43703;51.060;-0.086;2022-09-03T14:59:32;25;25;
57884;PMS5003;43703;51.060;-0.086;2022-09-03T15:01:54;22;21;
57884;PMS5003;43703;51.060;-0.086;2022-09-03T15:04:23;24;22;
57884;PMS5003;43703;51.060;-0.086;2022-09-03T15:06:47;20;19;
57884;PMS5003;43703;51.060;-0.086;2022-09-03T15:09:14;19;19;
57884;PMS5003;43703;51.060;-0.086;2022-09-03T15:11:42;22;21;
57884;PMS5003;43703;51.060;-0.086;2022-09-03T15:14:03;19;19;
57884;PMS5003;43703;51.060;-0.086;2022-09-03T15:16:30;25;24;
57884;PMS5003;43703;51.060;-0.086;2022-09-03T15:18:56;23;23;
57884;PMS5003;43703;51.060;-0.086;2022-09-03T15:21:20;30;27;
57884;PMS5003;43703;51.060;-0.086;2022-09-03T15:23:47;32;30;
57884;PMS5003;43703;51.060;-0.086;2022-09-03T15:26:13;22;21;
57884;PMS5003;43703;51.060;-0.086;2022-09-03T15:28:35;19;18;
57884;PMS5003;43703;51.060;-0.086;2022-09-03T15:30:59;21;21;
57884;PMS5003;43703;51.060;-0.086;2022-09-03T15:33:27;23;20;
57884;PMS5003;43703;51.060;-0.086;2022-09-03T15:35:53;20;20;
57884;PMS5003;43703;51.060;-0.086;2022-09-03T15:38:19;20;20;
57884;PMS5003;43703;51.060;-0.086;2022-09-03T15:40:47;21;21;
57884;PMS5003;43703;51.060;-0.086;2022-09-03T15:43:08;19;19;
57884;PMS5003;43703;51.060;-0.086;2022-09-03T15:45:34;22;21;
57884;PMS5003;43703;51.060;-0.086;2022-09-03T15:48:00;23;22;
57884;PMS5003;43703;51.060;-0.086;2022-09-03T15:50:24;22;20;
57884;PMS5003;43703;51.060;-0.086;2022-09-03T15:52:51;20;18;
57884;PMS5003;43703;51.060;-0.086;2022-09-03T15:55:23;20;20;
57884;PMS5003;43703;51.060;-0.086;2022-09-03T15:57:41;19;18;
57884;PMS5003;43703;51.060;-0.086;2022-09-03T16:00:07;21;20;
57884;PMS5003;43703;51.060;-0.086;2022-09-03T16:02:33;23;21;
57884;PMS5003;43703;51.060;-0.086;2022-09-03T16:05:02;22;22;
57884;PMS5003;43703;51.060;-0.086;2022-09-03T16:07:24;18;18;
57884;PMS5003;43703;51.060;-0.086;2022-09-03T16:09:50;19;19;
57884;PMS5003;43703;51.060;-0.086;2022-09-03T16:12:18;20;20;
57884;PMS5003;43703;51.060;-0.086;2022-09-03T16:14:40;19;17;
57884;PMS5003;43703;51.060;-0.086;2022-09-03T16:17:06;19;19;